createdAt,value
2018-06-29T00:00:10.918Z,87.77
2018-06-29T00:02:39.995Z,88.07
2018-06-29T00:05:09.760Z,88.35
2018-06-29T00:07:38.759Z,88.55
2018-06-29T00:10:08.150Z,88.79
2018-06-29T00:12:37.155Z,88.43
2018-06-29T00:15:06.242Z,89.24
2018-06-29T00:17:35.199Z,88.57
2018-06-29T00:20:04.622Z,88.68
2018-06-29T00:22:33.884Z,89.36
2018-06-29T00:25:02.920Z,88.84
2018-06-29T00:27:32.009Z,89.58
2018-06-29T00:30:00.998Z,88.88
2018-06-29T00:32:30.067Z,89.44
2018-06-29T00:34:59.186Z,89.68
2018-06-29T00:37:28.247Z,88.81
2018-06-29T00:39:57.333Z,88.99
2018-06-29T00:42:26.449Z,88.93
2018-06-29T00:44:55.509Z,89.56
2018-06-29T00:47:24.473Z,89.75
2018-06-29T00:49:53.442Z,89.57
2018-06-29T00:52:23.237Z,89.99
2018-06-29T00:54:52.147Z,89.61
2018-06-29T00:57:22.629Z,89.28
2018-06-29T00:59:51.599Z,89.55
2018-06-29T01:02:21.465Z,89.29
2018-06-29T01:04:50.558Z,88.40
2018-06-29T01:07:19.575Z,88.44
2018-06-29T01:09:48.531Z,88.00
2018-06-29T01:12:17.518Z,88.02
2018-06-29T01:14:46.501Z,88.38
2018-06-29T01:17:15.512Z,87.58
2018-06-29T01:19:44.710Z,88.34
2018-06-29T01:22:13.867Z,87.99
2018-06-29T01:24:43.003Z,88.39
2018-06-29T01:27:12.699Z,87.58
2018-06-29T01:29:41.733Z,87.60
2018-06-29T01:32:10.700Z,88.67
2018-06-29T01:34:39.787Z,88.11
2018-06-29T01:37:08.754Z,88.35
2018-06-29T01:39:37.796Z,88.73
2018-06-29T01:42:06.917Z,88.44
2018-06-29T01:44:35.947Z,88.45
2018-06-29T01:47:05.067Z,88.55
2018-06-29T01:49:34.075Z,88.52
2018-06-29T01:52:03.089Z,87.83
2018-06-29T01:54:32.084Z,87.90
2018-06-29T01:57:01.212Z,88.62
2018-06-29T01:59:30.208Z,87.67
2018-06-29T02:01:59.204Z,88.60
2018-06-29T02:04:28.300Z,88.54
2018-06-29T02:06:57.372Z,88.64
2018-06-29T02:09:26.337Z,89.14
2018-06-29T02:11:55.393Z,88.34
2018-06-29T02:14:25.021Z,87.94
2018-06-29T02:16:54.053Z,88.69
2018-06-29T02:19:23.222Z,88.83
2018-06-29T02:21:52.237Z,90.84
2018-06-29T02:24:21.952Z,91.07
2018-06-29T02:26:51.002Z,90.86
2018-06-29T02:29:19.960Z,89.56
2018-06-29T02:31:49.009Z,88.95
2018-06-29T02:34:18.038Z,89.16
2018-06-29T02:36:47.038Z,90.11
2018-06-29T02:39:16.033Z,91.18
2018-06-29T02:41:45.125Z,90.39
2018-06-29T02:44:14.098Z,90.52
2018-06-29T02:46:43.069Z,90.67
2018-06-29T02:49:12.648Z,90.37
2018-06-29T02:51:41.621Z,89.76
2018-06-29T02:54:10.665Z,89.27
2018-06-29T02:56:40.871Z,89.66
2018-06-29T02:59:09.977Z,89.82
2018-06-29T03:01:39.594Z,89.21
2018-06-29T03:04:08.690Z,89.38
2018-06-29T03:06:37.705Z,88.03
2018-06-29T03:09:09.044Z,88.46
2018-06-29T03:11:38.181Z,89.46
2018-06-29T03:14:07.874Z,88.70
2018-06-29T03:16:38.559Z,88.56
2018-06-29T03:19:07.639Z,89.20
2018-06-29T03:21:36.754Z,88.47
2018-06-29T03:24:05.914Z,88.13
2018-06-29T03:26:35.699Z,87.72
2018-06-29T03:29:04.754Z,87.28
2018-06-29T03:31:33.814Z,86.57
2018-06-29T03:34:02.954Z,86.77
2018-06-29T03:36:31.926Z,87.04
2018-06-29T03:39:01.073Z,86.60
2018-06-29T03:41:30.099Z,86.50
2018-06-29T03:43:59.079Z,86.53
2018-06-29T03:46:28.151Z,85.83
2018-06-29T03:48:57.141Z,86.15
2018-06-29T03:51:26.049Z,85.76
2018-06-29T03:53:55.185Z,85.69
2018-06-29T03:56:24.182Z,86.52
2018-06-29T03:58:53.565Z,84.99
2018-06-29T04:01:22.567Z,85.03
2018-06-29T04:03:51.628Z,86.90
2018-06-29T04:06:21.599Z,87.59
2018-06-29T04:08:50.617Z,88.16
2018-06-29T04:11:19.560Z,87.98
2018-06-29T04:13:48.497Z,89.39
2018-06-29T04:16:17.505Z,89.73
2018-06-29T04:18:46.580Z,91.58
2018-06-29T04:21:15.512Z,90.39
2018-06-29T04:23:44.684Z,90.61
2018-06-29T04:26:13.807Z,91.18
2018-06-29T04:28:43.735Z,92.36
2018-06-29T04:31:12.740Z,92.00
2018-06-29T04:33:41.663Z,91.18
2018-06-29T04:36:10.717Z,91.63
2018-06-29T04:38:39.848Z,91.01
2018-06-29T04:41:09.055Z,89.34
2018-06-29T04:43:38.056Z,88.42
2018-06-29T04:46:07.148Z,89.24
2018-06-29T04:48:36.080Z,88.80
2018-06-29T04:51:05.061Z,88.39
2018-06-29T04:53:34.151Z,88.28
2018-06-29T04:56:03.198Z,87.53
2018-06-29T04:58:32.161Z,88.11
2018-06-29T05:01:01.217Z,86.36
2018-06-29T05:03:30.257Z,85.04
2018-06-29T05:05:59.210Z,83.76
2018-06-29T05:08:28.279Z,84.42
2018-06-29T05:10:57.361Z,84.87
2018-06-29T05:13:26.315Z,84.23
2018-06-29T05:15:55.490Z,84.09
2018-06-29T05:18:24.520Z,82.76
2018-06-29T05:20:53.464Z,83.52
2018-06-29T05:23:22.476Z,83.70
2018-06-29T05:25:51.441Z,80.90
2018-06-29T05:28:20.413Z,83.13
2018-06-29T05:30:49.538Z,79.34
2018-06-29T05:33:21.341Z,81.48
2018-06-29T05:35:50.486Z,78.61
2018-06-29T05:38:20.214Z,79.86
2018-06-29T05:40:49.270Z,80.36
2018-06-29T05:43:18.284Z,80.10
2018-06-29T05:45:47.327Z,80.74
2018-06-29T05:48:16.311Z,80.46
2018-06-29T05:50:45.555Z,79.85
2018-06-29T05:53:14.569Z,82.10
2018-06-29T05:55:43.567Z,83.15
2018-06-29T05:58:12.649Z,82.08
2018-06-29T06:00:41.676Z,82.51
2018-06-29T06:03:10.607Z,80.27
2018-06-29T06:05:39.766Z,83.50
2018-06-29T06:08:08.834Z,81.28
2018-06-29T06:10:37.876Z,82.66
2018-06-29T06:13:06.935Z,80.52
2018-06-29T06:15:36.390Z,82.25
2018-06-29T06:18:05.347Z,81.15
2018-06-29T06:20:34.996Z,81.58
2018-06-29T06:23:15.783Z,81.54
2018-06-29T06:25:44.808Z,79.68
2018-06-29T06:28:14.545Z,81.58
2018-06-29T06:30:43.543Z,82.17
2018-06-29T06:33:12.838Z,80.89
2018-06-29T06:35:42.027Z,78.95
2018-06-29T06:38:11.085Z,79.71
2018-06-29T06:40:40.153Z,82.90
2018-06-29T06:43:09.282Z,81.70
2018-06-29T06:45:38.222Z,79.29
2018-06-29T06:48:07.339Z,82.02
2018-06-29T06:50:36.813Z,79.52
2018-06-29T06:53:05.787Z,81.08
2018-06-29T06:55:37.665Z,80.83
2018-06-29T06:58:06.734Z,79.24
2018-06-29T07:00:35.721Z,80.09
2018-06-29T07:03:04.711Z,79.95
2018-06-29T07:05:33.656Z,80.48
2018-06-29T07:08:02.684Z,80.23
2018-06-29T07:10:31.690Z,79.18
2018-06-29T07:13:00.645Z,79.00
2018-06-29T07:15:29.587Z,77.78
2018-06-29T07:17:59.277Z,79.36
2018-06-29T07:20:28.253Z,79.10
2018-06-29T07:22:57.240Z,76.86
2018-06-29T07:25:26.364Z,77.96
2018-06-29T07:27:57.645Z,77.71
2018-06-29T07:30:26.684Z,78.05
2018-06-29T07:32:55.645Z,76.41
2018-06-29T07:35:24.744Z,78.48
2018-06-29T07:37:54.208Z,78.60
2018-06-29T07:40:23.223Z,79.02
2018-06-29T07:42:52.168Z,78.09
2018-06-29T07:45:21.174Z,77.01
2018-06-29T07:47:50.273Z,77.20
2018-06-29T07:50:19.240Z,77.28
2018-06-29T07:52:49.003Z,75.80
2018-06-29T07:55:18.050Z,73.31
2018-06-29T07:57:47.048Z,75.45
2018-06-29T08:00:16.589Z,78.68
2018-06-29T08:02:45.731Z,75.68
2018-06-29T08:05:14.762Z,73.38
2018-06-29T08:07:43.839Z,71.96
2018-06-29T08:10:12.887Z,70.74
2018-06-29T08:12:42.002Z,71.47
2018-06-29T08:15:11.243Z,70.05
2018-06-29T08:17:40.401Z,68.11
2018-06-29T08:20:10.080Z,65.08
2018-06-29T08:22:40.151Z,67.43
2018-06-29T08:25:17.268Z,69.27
2018-06-29T08:27:46.471Z,68.89
2018-06-29T08:30:15.928Z,69.38
2018-06-29T08:32:45.064Z,73.77
2018-06-29T08:35:14.294Z,71.83
2018-06-29T08:37:43.462Z,70.66
2018-06-29T08:40:12.592Z,68.97
2018-06-29T08:42:41.755Z,69.46
2018-06-29T08:45:10.988Z,66.65
2018-06-29T08:47:40.163Z,70.22
2018-06-29T08:50:09.359Z,66.00
2018-06-29T08:52:38.453Z,69.42
2018-06-29T08:55:08.465Z,68.46
2018-06-29T08:57:37.601Z,68.52
2018-06-29T09:00:10.168Z,66.64
2018-06-29T09:02:39.430Z,65.87
2018-06-29T09:05:08.876Z,67.17
2018-06-29T09:07:37.988Z,59.84
2018-06-29T09:10:07.443Z,61.62
2018-06-29T09:12:36.505Z,62.77
2018-06-29T09:15:06.187Z,63.00
2018-06-29T09:17:35.484Z,60.71
2018-06-29T09:20:04.783Z,59.92
2018-06-29T09:22:33.913Z,61.21
2018-06-29T09:25:03.149Z,62.79
2018-06-29T09:27:32.352Z,60.94
2018-06-29T09:30:02.589Z,63.74
2018-06-29T09:32:32.451Z,61.95
2018-06-29T09:35:01.582Z,64.29
2018-06-29T09:37:30.724Z,66.08
2018-06-29T09:40:00.533Z,64.17
2018-06-29T09:42:29.578Z,64.30
2018-06-29T09:44:58.743Z,62.59
2018-06-29T09:47:27.916Z,56.69
2018-06-29T09:49:57.018Z,58.79
2018-06-29T09:52:26.120Z,61.66
2018-06-29T09:54:55.305Z,58.91
2018-06-29T09:57:24.483Z,59.61
2018-06-29T09:59:53.608Z,62.46
2018-06-29T10:02:23.265Z,56.69
2018-06-29T10:04:52.380Z,57.94
2018-06-29T10:07:21.483Z,57.85
2018-06-29T10:09:50.698Z,56.12
2018-06-29T10:12:19.850Z,62.23
2018-06-29T10:14:48.975Z,60.19
2018-06-29T10:17:18.186Z,60.61
2018-06-29T10:19:47.343Z,58.41
2018-06-29T10:22:16.593Z,57.62
2018-06-29T10:24:45.972Z,61.57
2018-06-29T10:27:15.134Z,62.94
2018-06-29T10:29:45.206Z,62.89
2018-06-29T10:32:14.331Z,61.54
2018-06-29T10:34:43.942Z,64.23
2018-06-29T10:37:14.003Z,63.10
2018-06-29T10:39:43.692Z,65.29
2018-06-29T10:42:12.913Z,66.89
2018-06-29T10:44:42.690Z,69.13
2018-06-29T10:47:11.773Z,67.12
2018-06-29T10:49:40.898Z,68.83
2018-06-29T10:52:10.100Z,65.62
2018-06-29T10:54:39.208Z,64.94
2018-06-29T10:57:08.331Z,63.35
2018-06-29T10:59:37.488Z,59.96
2018-06-29T11:02:06.653Z,65.70
2018-06-29T11:04:35.722Z,58.83
2018-06-29T11:07:05.036Z,61.07
2018-06-29T11:09:34.147Z,63.24
2018-06-29T11:12:03.338Z,65.60
2018-06-29T11:14:32.658Z,61.41
2018-06-29T11:17:01.796Z,58.53
2018-06-29T11:19:30.922Z,57.56
2018-06-29T11:22:00.096Z,57.88
2018-06-29T11:24:29.771Z,56.55
2018-06-29T11:26:59.526Z,56.91
2018-06-29T11:29:28.669Z,55.30
2018-06-29T11:31:57.749Z,52.48
2018-06-29T11:34:26.850Z,53.30
2018-06-29T11:36:56.712Z,53.35
2018-06-29T11:39:26.580Z,55.48
2018-06-29T11:41:55.518Z,55.77
2018-06-29T11:44:24.723Z,52.04
2018-06-29T11:46:54.577Z,56.20
2018-06-29T11:49:24.375Z,51.31
2018-06-29T11:51:53.527Z,54.23
2018-06-29T11:54:22.624Z,51.98
2018-06-29T11:56:52.407Z,52.28
2018-06-29T11:59:21.488Z,49.89
2018-06-29T12:01:50.586Z,53.94
2018-06-29T12:04:19.697Z,51.67
2018-06-29T12:06:49.260Z,51.59
2018-06-29T12:09:18.422Z,51.42
2018-06-29T12:11:47.684Z,51.83
2018-06-29T12:14:16.935Z,51.41
2018-06-29T12:16:46.016Z,54.75
2018-06-29T12:19:15.164Z,53.41
2018-06-29T12:21:44.965Z,49.58
2018-06-29T12:24:14.754Z,51.67
2018-06-29T12:26:44.546Z,51.26
2018-06-29T12:29:14.256Z,49.10
2018-06-29T12:31:43.392Z,48.38
2018-06-29T12:34:12.539Z,48.80
2018-06-29T12:36:41.637Z,51.86
2018-06-29T12:39:10.882Z,52.14
2018-06-29T12:41:41.420Z,47.20
2018-06-29T12:44:11.408Z,48.08
2018-06-29T12:46:40.826Z,51.76
2018-06-29T12:49:09.805Z,49.32
2018-06-29T12:51:39.008Z,50.35
2018-06-29T12:54:08.025Z,48.09
2018-06-29T12:56:36.955Z,52.35
2018-06-29T12:59:05.907Z,50.85
2018-06-29T13:01:34.936Z,50.73
2018-06-29T13:04:04.009Z,49.61
2018-06-29T13:06:32.950Z,49.42
2018-06-29T13:09:01.896Z,48.30
2018-06-29T13:11:31.426Z,49.78
2018-06-29T13:14:00.347Z,48.46
2018-06-29T13:16:29.452Z,47.00
2018-06-29T13:18:58.374Z,49.85
2018-06-29T13:21:29.707Z,49.21
2018-06-29T13:23:58.634Z,52.59
2018-06-29T13:26:27.549Z,53.01
2018-06-29T13:28:56.753Z,54.99
2018-06-29T13:31:25.713Z,52.90
2018-06-29T13:33:54.969Z,54.55
2018-06-29T13:36:23.979Z,54.01
2018-06-29T13:38:52.953Z,57.04
2018-06-29T13:41:21.924Z,55.46
2018-06-29T13:43:50.876Z,51.98
2018-06-29T13:46:19.803Z,53.98
2018-06-29T13:48:50.071Z,54.01
2018-06-29T13:51:19.116Z,51.95
2018-06-29T13:53:48.162Z,55.20
2018-06-29T13:56:17.113Z,50.96
2018-06-29T13:58:46.261Z,52.39
2018-06-29T14:01:15.243Z,54.96
2018-06-29T14:03:44.161Z,55.68
2018-06-29T14:06:13.239Z,55.14
2018-06-29T14:08:42.167Z,54.31
2018-06-29T14:11:11.277Z,56.39
2018-06-29T14:13:40.324Z,59.12
2018-06-29T14:16:09.386Z,57.57
2018-06-29T14:18:38.330Z,61.03
2018-06-29T14:21:07.596Z,62.44
2018-06-29T14:23:37.508Z,64.01
2018-06-29T14:26:06.742Z,67.41
2018-06-29T14:28:35.756Z,65.16
2018-06-29T14:31:04.725Z,66.03
2018-06-29T14:33:33.901Z,65.39
2018-06-29T14:36:03.009Z,65.06
2018-06-29T14:38:32.044Z,66.65
2018-06-29T14:41:01.068Z,62.29
2018-06-29T14:43:30.069Z,63.08
2018-06-29T14:46:00.116Z,64.33
2018-06-29T14:48:29.215Z,62.32
2018-06-29T14:50:58.362Z,59.40
2018-06-29T14:53:27.279Z,61.39
2018-06-29T14:55:56.347Z,60.76
2018-06-29T14:58:25.316Z,57.40
2018-06-29T15:00:54.384Z,59.72
2018-06-29T15:03:23.442Z,60.70
2018-06-29T15:05:52.389Z,61.73
2018-06-29T15:08:22.085Z,59.88
2018-06-29T15:10:51.233Z,60.81
2018-06-29T15:13:20.192Z,60.65
2018-06-29T15:15:49.213Z,60.64
2018-06-29T15:18:18.364Z,61.76
2018-06-29T15:20:47.311Z,60.21
2018-06-29T15:23:16.426Z,58.31
2018-06-29T15:25:45.458Z,58.45
2018-06-29T15:28:15.294Z,58.23
2018-06-29T15:30:44.281Z,58.67
2018-06-29T15:33:13.357Z,60.34
2018-06-29T15:35:42.273Z,59.91
2018-06-29T15:38:11.784Z,60.41
2018-06-29T15:40:40.808Z,60.15
2018-06-29T15:43:10.998Z,59.98
2018-06-29T15:45:39.947Z,58.01
2018-06-29T15:48:09.120Z,60.43
2018-06-29T15:50:38.179Z,61.49
2018-06-29T15:53:07.724Z,60.79
2018-06-29T15:55:37.415Z,60.04
2018-06-29T15:58:06.440Z,61.25
2018-06-29T16:00:35.492Z,61.64
2018-06-29T16:03:04.726Z,60.05
2018-06-29T16:05:33.737Z,61.47
2018-06-29T16:08:03.862Z,63.92
2018-06-29T16:10:32.956Z,66.04
2018-06-29T16:13:01.917Z,66.96
2018-06-29T16:15:30.897Z,66.52
2018-06-29T16:17:59.948Z,66.72
2018-06-29T16:20:28.901Z,66.21
2018-06-29T16:22:57.985Z,68.00
2018-06-29T16:25:26.999Z,66.39
2018-06-29T16:27:55.969Z,68.22
2018-06-29T16:30:25.073Z,67.29
2018-06-29T16:32:54.132Z,67.82
2018-06-29T16:35:23.144Z,67.37
2018-06-29T16:37:52.205Z,66.79
2018-06-29T16:40:21.152Z,66.80
2018-06-29T16:42:50.112Z,67.64
2018-06-29T16:45:19.246Z,67.42
2018-06-29T16:47:48.178Z,68.11
2018-06-29T16:50:17.092Z,68.23
2018-06-29T16:52:46.147Z,69.36
2018-06-29T16:55:15.240Z,69.99
2018-06-29T16:57:44.380Z,69.70
2018-06-29T17:00:13.529Z,69.65
2018-06-29T17:02:42.588Z,70.10
2018-06-29T17:05:11.591Z,70.89
2018-06-29T17:07:42.694Z,70.40
2018-06-29T17:10:11.693Z,71.81
2018-06-29T17:12:40.877Z,70.79
2018-06-29T17:15:10.146Z,70.67
2018-06-29T17:17:39.344Z,71.14
2018-06-29T17:20:08.559Z,71.71
2018-06-29T17:22:37.640Z,69.96
2018-06-29T17:25:06.951Z,70.31
2018-06-29T17:27:36.037Z,70.68
2018-06-29T17:30:06.216Z,70.32
2018-06-29T17:32:35.566Z,70.47
2018-06-29T17:35:04.726Z,70.47
2018-06-29T17:37:33.829Z,70.33
2018-06-29T17:40:03.164Z,70.20
2018-06-29T17:42:32.175Z,70.59
2018-06-29T17:45:02.939Z,70.56
2018-06-29T17:47:31.988Z,71.30
2018-06-29T17:50:01.075Z,70.48
2018-06-29T17:52:30.019Z,71.53
2018-06-29T17:54:59.042Z,71.52
2018-06-29T17:57:28.657Z,71.98
2018-06-29T17:59:57.593Z,73.02
2018-06-29T18:02:26.592Z,72.49
2018-06-29T18:04:56.553Z,72.96
2018-06-29T18:07:25.501Z,72.94
2018-06-29T18:09:54.651Z,72.75
2018-06-29T18:12:23.667Z,73.15
2018-06-29T18:14:52.622Z,73.16
2018-06-29T18:17:23.447Z,73.52
2018-06-29T18:19:52.369Z,73.91
2018-06-29T18:22:21.546Z,73.37
2018-06-29T18:24:50.584Z,74.17
2018-06-29T18:27:19.532Z,75.03
2018-06-29T18:29:48.563Z,75.24
2018-06-29T18:32:17.553Z,75.16
2018-06-29T18:34:46.499Z,74.22
2018-06-29T18:37:15.701Z,75.93
2018-06-29T18:39:44.714Z,74.32
2018-06-29T18:42:14.635Z,75.47
2018-06-29T18:44:43.553Z,75.29
2018-06-29T18:47:12.712Z,75.67
2018-06-29T18:49:41.688Z,75.30
2018-06-29T18:52:10.656Z,74.90
2018-06-29T18:54:39.677Z,75.44
2018-06-29T18:57:08.630Z,75.83
2018-06-29T18:59:37.630Z,76.02
2018-06-29T19:02:06.668Z,75.69
2018-06-29T19:04:35.602Z,76.18
2018-06-29T19:07:04.621Z,76.35
2018-06-29T19:09:34.623Z,76.44
2018-06-29T19:12:03.962Z,76.16
2018-06-29T19:14:32.942Z,76.34
2018-06-29T19:17:01.885Z,76.37
2018-06-29T19:19:31.905Z,76.96
2018-06-29T19:22:01.001Z,77.06
2018-06-29T19:24:30.553Z,76.61
2018-06-29T19:26:59.637Z,77.17
2018-06-29T19:29:28.714Z,76.25
2018-06-29T19:31:57.786Z,76.23
2018-06-29T19:34:26.819Z,76.84
2018-06-29T19:39:41.741Z,76.25
2018-06-29T19:42:10.813Z,76.24
2018-06-29T19:44:39.796Z,76.66
2018-06-29T19:47:08.729Z,76.06
2018-06-29T19:49:37.716Z,76.16
2018-06-29T19:52:06.709Z,76.45
2018-06-29T19:54:35.892Z,76.84
2018-06-29T19:57:05.112Z,77.53
2018-06-29T19:59:34.057Z,77.73
2018-06-29T20:02:03.312Z,78.18
2018-06-29T20:04:32.776Z,78.29
2018-06-29T20:07:01.855Z,78.50
2018-06-29T20:09:30.813Z,77.88
2018-06-29T20:12:00.144Z,78.48
2018-06-29T20:14:29.096Z,78.32
2018-06-29T20:16:58.047Z,78.66
2018-06-29T20:19:27.016Z,78.61
2018-06-29T20:21:55.921Z,79.46
2018-06-29T20:24:24.823Z,80.36
2018-06-29T20:26:53.890Z,81.06
2018-06-29T20:29:22.878Z,81.31
2018-06-29T20:31:51.832Z,81.82
2018-06-29T20:34:20.839Z,82.12
2018-06-29T20:36:49.773Z,81.37
2018-06-29T20:39:18.751Z,81.70
2018-06-29T20:41:47.883Z,81.10
2018-06-29T20:44:16.820Z,82.00
2018-06-29T20:46:45.824Z,81.17
2018-06-29T20:49:15.130Z,81.02
2018-06-29T20:51:44.876Z,81.20
2018-06-29T20:54:13.821Z,81.63
2018-06-29T20:56:43.776Z,80.76
2018-06-29T20:59:12.684Z,81.22
2018-06-29T21:01:41.706Z,81.11
2018-06-29T21:04:10.793Z,81.55
2018-06-29T21:06:39.811Z,81.03
2018-06-29T21:09:11.411Z,81.04
2018-06-29T21:11:40.560Z,81.33
2018-06-29T21:14:09.532Z,80.90
2018-06-29T21:16:38.638Z,81.53
2018-06-29T21:19:07.943Z,81.28
2018-06-29T21:21:36.913Z,81.25
2018-06-29T21:24:05.958Z,80.84
2018-06-29T21:26:34.901Z,81.18
2018-06-29T21:29:03.884Z,81.79
2018-06-29T21:31:33.867Z,81.84
2018-06-29T21:34:02.785Z,81.07
2018-06-29T21:36:31.695Z,81.26
2018-06-29T21:39:00.805Z,81.15
2018-06-29T21:41:29.695Z,81.03
2018-06-29T21:43:59.312Z,81.31
2018-06-29T21:46:28.337Z,82.31
2018-06-29T21:48:57.959Z,82.84
2018-06-29T21:51:27.142Z,82.41
2018-06-29T21:53:56.249Z,81.85
2018-06-29T21:56:25.257Z,82.28
2018-06-29T21:58:54.392Z,82.63
2018-06-29T22:01:23.609Z,82.44
2018-06-29T22:03:52.681Z,82.12
2018-06-29T22:06:22.556Z,81.70
2018-06-29T22:08:51.737Z,82.77
2018-06-29T22:11:20.676Z,82.49
2018-06-29T22:13:49.608Z,82.65
2018-06-29T22:16:18.612Z,82.34
2018-06-29T22:18:47.596Z,83.06
2018-06-29T22:21:16.607Z,82.65
2018-06-29T22:23:45.682Z,83.53
2018-06-29T22:26:14.591Z,83.00
2018-06-29T22:28:43.623Z,83.17
2018-06-29T22:31:12.594Z,83.57
2018-06-29T22:33:42.225Z,82.51
2018-06-29T22:36:11.336Z,82.57
2018-06-29T22:38:40.482Z,84.05
2018-06-29T22:41:09.440Z,84.16
2018-06-29T22:43:38.927Z,83.79
2018-06-29T22:46:07.968Z,84.07
2018-06-29T22:48:36.900Z,84.54
2018-06-29T22:51:05.851Z,84.48
2018-06-29T22:53:34.892Z,83.65
2018-06-29T22:56:03.983Z,83.77
2018-06-29T22:58:33.018Z,83.30
2018-06-29T23:01:02.015Z,83.99
2018-06-29T23:03:36.235Z,83.83
2018-06-29T23:06:05.293Z,84.51
2018-06-29T23:08:34.425Z,83.53
2018-06-29T23:11:03.338Z,83.60
2018-06-29T23:13:32.308Z,83.60
2018-06-29T23:16:01.217Z,83.65
2018-06-29T23:18:30.136Z,82.97
2018-06-29T23:20:59.217Z,83.08
2018-06-29T23:23:28.149Z,82.06
2018-06-29T23:25:57.721Z,80.93
2018-06-29T23:28:26.890Z,80.37
2018-06-29T23:30:55.857Z,80.52
2018-06-29T23:33:24.784Z,80.28
2018-06-29T23:35:54.404Z,79.86
2018-06-29T23:38:23.335Z,78.91
2018-06-29T23:40:52.259Z,78.84
2018-06-29T23:43:21.392Z,79.97
2018-06-29T23:45:50.306Z,78.33
2018-06-29T23:48:19.221Z,78.62
2018-06-29T23:50:48.239Z,79.06
2018-06-29T23:53:17.400Z,78.61
2018-06-29T23:55:46.303Z,78.47
2018-06-29T23:58:16.153Z,78.18
